sensor_id;sensor_type;location;lat;lon;timestamp;temperature;humidity
73360;DHT22;63092;43.582;19.528;2023-05-20T00:01:21;15.30;99.90
73360;DHT22;63092;43.582;19.528;2023-05-20T00:03:47;15.30;99.90
73360;DHT22;63092;43.582;19.528;2023-05-20T00:06:13;15.30;99.90
73360;DHT22;63092;43.582;19.528;2023-05-20T00:08:38;15.20;99.90
73360;DHT22;63092;43.582;19.528;2023-05-20T00:11:04;15.20;99.90
73360;DHT22;63092;43.582;19.528;2023-05-20T00:13:30;15.20;99.90
73360;DHT22;63092;43.582;19.528;2023-05-20T00:15:56;15.10;99.90
73360;DHT22;63092;43.582;19.528;2023-05-20T00:18:22;15.10;99.90
73360;DHT22;63092;43.582;19.528;2023-05-20T00:20:47;15.10;99.90
73360;DHT22;63092;43.582;19.528;2023-05-20T00:23:13;15.10;99.90
73360;DHT22;63092;43.582;19.528;2023-05-20T00:25:39;15.00;99.90
73360;DHT22;63092;43.582;19.528;2023-05-20T00:28:05;15.00;99.90
73360;DHT22;63092;43.582;19.528;2023-05-20T00:30:31;14.90;99.90
73360;DHT22;63092;43.582;19.528;2023-05-20T00:32:57;14.80;99.90
73360;DHT22;63092;43.582;19.528;2023-05-20T00:35:22;14.70;99.90
73360;DHT22;63092;43.582;19.528;2023-05-20T00:37:48;14.70;99.90
73360;DHT22;63092;43.582;19.528;2023-05-20T00:40:14;14.70;99.90
73360;DHT22;63092;43.582;19.528;2023-05-20T00:42:40;14.60;99.90
73360;DHT22;63092;43.582;19.528;2023-05-20T00:45:06;14.60;99.90
73360;DHT22;63092;43.582;19.528;2023-05-20T00:47:33;14.60;99.90
73360;DHT22;63092;43.582;19.528;2023-05-20T00:50:01;14.70;99.90
73360;DHT22;63092;43.582;19.528;2023-05-20T00:52:31;14.70;99.90
73360;DHT22;63092;43.582;19.528;2023-05-20T00:54:58;14.60;99.90
73360;DHT22;63092;43.582;19.528;2023-05-20T00:57:24;14.70;99.90
73360;DHT22;63092;43.582;19.528;2023-05-20T00:59:50;14.40;99.90
73360;DHT22;63092;43.582;19.528;2023-05-20T01:02:16;14.50;99.90
73360;DHT22;63092;43.582;19.528;2023-05-20T01:04:43;14.60;99.90
73360;DHT22;63092;43.582;19.528;2023-05-20T01:07:14;14.50;99.90
73360;DHT22;63092;43.582;19.528;2023-05-20T01:09:40;14.60;99.90
73360;DHT22;63092;43.582;19.528;2023-05-20T01:14:46;14.60;99.90
73360;DHT22;63092;43.582;19.528;2023-05-20T01:17:14;14.50;99.90
73360;DHT22;63092;43.582;19.528;2023-05-20T01:19:42;14.40;99.90
73360;DHT22;63092;43.582;19.528;2023-05-20T01:22:09;14.40;99.90
73360;DHT22;63092;43.582;19.528;2023-05-20T01:24:42;14.40;99.90
73360;DHT22;63092;43.582;19.528;2023-05-20T01:27:12;14.30;99.90
73360;DHT22;63092;43.582;19.528;2023-05-20T01:29:39;14.30;99.90
73360;DHT22;63092;43.582;19.528;2023-05-20T01:32:08;14.30;99.90
73360;DHT22;63092;43.582;19.528;2023-05-20T01:34:35;14.20;99.90
73360;DHT22;63092;43.582;19.528;2023-05-20T01:37:03;14.20;99.90
73360;DHT22;63092;43.582;19.528;2023-05-20T01:39:31;14.20;99.90
73360;DHT22;63092;43.582;19.528;2023-05-20T01:41:59;14.20;99.90
73360;DHT22;63092;43.582;19.528;2023-05-20T01:44:25;14.30;99.90
73360;DHT22;63092;43.582;19.528;2023-05-20T01:46:51;14.30;99.90
73360;DHT22;63092;43.582;19.528;2023-05-20T01:49:16;14.30;99.90
73360;DHT22;63092;43.582;19.528;2023-05-20T01:51:42;14.20;99.90
73360;DHT22;63092;43.582;19.528;2023-05-20T01:54:08;14.10;99.90
73360;DHT22;63092;43.582;19.528;2023-05-20T01:56:33;14.10;99.90
73360;DHT22;63092;43.582;19.528;2023-05-20T01:58:59;14.20;99.90
73360;DHT22;63092;43.582;19.528;2023-05-20T02:01:25;14.10;99.90
73360;DHT22;63092;43.582;19.528;2023-05-20T02:03:50;14.20;99.90
73360;DHT22;63092;43.582;19.528;2023-05-20T02:06:16;13.90;99.90
73360;DHT22;63092;43.582;19.528;2023-05-20T02:08:42;14.10;99.90
73360;DHT22;63092;43.582;19.528;2023-05-20T02:11:07;14.00;99.90
73360;DHT22;63092;43.582;19.528;2023-05-20T02:13:33;14.00;99.90
73360;DHT22;63092;43.582;19.528;2023-05-20T02:15:59;14.00;99.90
73360;DHT22;63092;43.582;19.528;2023-05-20T02:18:24;13.80;99.90
73360;DHT22;63092;43.582;19.528;2023-05-20T02:20:51;13.80;99.90
73360;DHT22;63092;43.582;19.528;2023-05-20T02:23:17;13.70;99.90
73360;DHT22;63092;43.582;19.528;2023-05-20T02:25:43;13.40;99.90
73360;DHT22;63092;43.582;19.528;2023-05-20T02:28:09;13.40;99.90
73360;DHT22;63092;43.582;19.528;2023-05-20T02:30:38;13.50;99.90
73360;DHT22;63092;43.582;19.528;2023-05-20T02:33:04;13.60;99.90
73360;DHT22;63092;43.582;19.528;2023-05-20T02:35:31;13.70;99.90
73360;DHT22;63092;43.582;19.528;2023-05-20T02:37:57;13.40;99.90
73360;DHT22;63092;43.582;19.528;2023-05-20T02:40:22;13.40;99.90
73360;DHT22;63092;43.582;19.528;2023-05-20T02:42:49;13.40;99.90
73360;DHT22;63092;43.582;19.528;2023-05-20T02:45:15;13.50;99.90
73360;DHT22;63092;43.582;19.528;2023-05-20T02:47:41;13.50;99.90
73360;DHT22;63092;43.582;19.528;2023-05-20T02:50:06;13.60;99.90
73360;DHT22;63092;43.582;19.528;2023-05-20T02:52:33;13.60;99.90
73360;DHT22;63092;43.582;19.528;2023-05-20T02:54:59;13.60;99.90
73360;DHT22;63092;43.582;19.528;2023-05-20T02:57:25;13.50;99.90
73360;DHT22;63092;43.582;19.528;2023-05-20T02:59:53;13.60;99.90
73360;DHT22;63092;43.582;19.528;2023-05-20T03:02:19;13.70;99.90
73360;DHT22;63092;43.582;19.528;2023-05-20T03:04:45;13.70;99.90
73360;DHT22;63092;43.582;19.528;2023-05-20T03:07:11;13.60;99.90
73360;DHT22;63092;43.582;19.528;2023-05-20T03:09:37;13.70;99.90
73360;DHT22;63092;43.582;19.528;2023-05-20T03:12:03;13.70;99.90
73360;DHT22;63092;43.582;19.528;2023-05-20T03:14:28;13.60;99.90
73360;DHT22;63092;43.582;19.528;2023-05-20T03:16:54;13.70;99.90
73360;DHT22;63092;43.582;19.528;2023-05-20T03:19:20;13.60;99.90
73360;DHT22;63092;43.582;19.528;2023-05-20T03:21:46;13.70;99.90
73360;DHT22;63092;43.582;19.528;2023-05-20T03:24:12;13.70;99.90
73360;DHT22;63092;43.582;19.528;2023-05-20T03:26:37;13.70;99.90
73360;DHT22;63092;43.582;19.528;2023-05-20T03:29:08;13.80;99.90
73360;DHT22;63092;43.582;19.528;2023-05-20T03:31:34;13.80;99.90
73360;DHT22;63092;43.582;19.528;2023-05-20T03:33:59;13.70;99.90
73360;DHT22;63092;43.582;19.528;2023-05-20T03:36:25;13.80;99.90
73360;DHT22;63092;43.582;19.528;2023-05-20T03:38:51;13.70;99.90
73360;DHT22;63092;43.582;19.528;2023-05-20T03:41:17;13.70;99.90
73360;DHT22;63092;43.582;19.528;2023-05-20T03:43:42;13.80;99.90
73360;DHT22;63092;43.582;19.528;2023-05-20T03:46:08;13.80;99.90
73360;DHT22;63092;43.582;19.528;2023-05-20T03:48:34;13.80;99.90
73360;DHT22;63092;43.582;19.528;2023-05-20T03:51:00;13.80;99.90
73360;DHT22;63092;43.582;19.528;2023-05-20T03:53:26;13.90;99.90
73360;DHT22;63092;43.582;19.528;2023-05-20T03:55:52;13.80;99.90
73360;DHT22;63092;43.582;19.528;2023-05-20T03:58:17;13.80;99.90
73360;DHT22;63092;43.582;19.528;2023-05-20T04:00:45;13.70;99.90
73360;DHT22;63092;43.582;19.528;2023-05-20T04:03:12;13.70;99.90
73360;DHT22;63092;43.582;19.528;2023-05-20T04:05:37;13.70;99.90
73360;DHT22;63092;43.582;19.528;2023-05-20T04:08:04;13.80;99.90
73360;DHT22;63092;43.582;19.528;2023-05-20T04:10:29;13.80;99.90
73360;DHT22;63092;43.582;19.528;2023-05-20T04:12:58;13.80;99.90
73360;DHT22;63092;43.582;19.528;2023-05-20T04:15:24;13.80;99.90
73360;DHT22;63092;43.582;19.528;2023-05-20T04:17:50;13.90;99.90
73360;DHT22;63092;43.582;19.528;2023-05-20T04:20:17;13.70;99.90
73360;DHT22;63092;43.582;19.528;2023-05-20T04:22:44;13.70;99.90
73360;DHT22;63092;43.582;19.528;2023-05-20T04:25:11;13.80;99.90
73360;DHT22;63092;43.582;19.528;2023-05-20T04:27:36;13.90;99.90
73360;DHT22;63092;43.582;19.528;2023-05-20T04:30:03;13.90;99.90
73360;DHT22;63092;43.582;19.528;2023-05-20T04:32:29;13.90;99.90
73360;DHT22;63092;43.582;19.528;2023-05-20T04:34:55;13.80;99.90
73360;DHT22;63092;43.582;19.528;2023-05-20T04:37:21;13.80;99.90
73360;DHT22;63092;43.582;19.528;2023-05-20T04:39:47;13.70;99.90
73360;DHT22;63092;43.582;19.528;2023-05-20T04:42:15;13.60;99.90
73360;DHT22;63092;43.582;19.528;2023-05-20T04:44:43;13.50;99.90
73360;DHT22;63092;43.582;19.528;2023-05-20T04:47:10;13.80;99.90
73360;DHT22;63092;43.582;19.528;2023-05-20T04:49:36;13.70;99.90
73360;DHT22;63092;43.582;19.528;2023-05-20T04:52:03;13.50;99.90
73360;DHT22;63092;43.582;19.528;2023-05-20T04:54:29;13.70;99.90
73360;DHT22;63092;43.582;19.528;2023-05-20T04:56:57;13.70;99.90
73360;DHT22;63092;43.582;19.528;2023-05-20T04:59:23;13.70;99.90
73360;DHT22;63092;43.582;19.528;2023-05-20T05:01:49;13.70;99.90
73360;DHT22;63092;43.582;19.528;2023-05-20T05:04:14;13.80;99.90
73360;DHT22;63092;43.582;19.528;2023-05-20T05:06:40;13.80;99.90
73360;DHT22;63092;43.582;19.528;2023-05-20T05:09:06;13.80;99.90
73360;DHT22;63092;43.582;19.528;2023-05-20T05:11:32;13.90;99.90
73360;DHT22;63092;43.582;19.528;2023-05-20T05:13:58;13.90;99.90
73360;DHT22;63092;43.582;19.528;2023-05-20T05:16:24;14.00;99.90
73360;DHT22;63092;43.582;19.528;2023-05-20T05:18:50;14.00;99.90
73360;DHT22;63092;43.582;19.528;2023-05-20T05:21:15;14.10;99.90
73360;DHT22;63092;43.582;19.528;2023-05-20T05:23:41;13.90;99.90
73360;DHT22;63092;43.582;19.528;2023-05-20T05:26:07;14.10;99.90
73360;DHT22;63092;43.582;19.528;2023-05-20T05:28:33;14.20;99.90
73360;DHT22;63092;43.582;19.528;2023-05-20T05:30:58;14.10;99.90
73360;DHT22;63092;43.582;19.528;2023-05-20T05:33:26;14.30;99.90
73360;DHT22;63092;43.582;19.528;2023-05-20T05:35:52;14.20;99.90
73360;DHT22;63092;43.582;19.528;2023-05-20T05:38:18;14.50;99.90
73360;DHT22;63092;43.582;19.528;2023-05-20T05:40:43;14.60;99.90
73360;DHT22;63092;43.582;19.528;2023-05-20T05:43:09;14.60;99.90
73360;DHT22;63092;43.582;19.528;2023-05-20T05:45:35;14.70;99.90
73360;DHT22;63092;43.582;19.528;2023-05-20T05:48:01;14.60;99.90
73360;DHT22;63092;43.582;19.528;2023-05-20T05:50:27;14.50;99.90
73360;DHT22;63092;43.582;19.528;2023-05-20T05:52:52;14.30;99.90
73360;DHT22;63092;43.582;19.528;2023-05-20T05:55:18;14.20;99.90
73360;DHT22;63092;43.582;19.528;2023-05-20T05:57:44;14.30;99.90
73360;DHT22;63092;43.582;19.528;2023-05-20T06:00:10;14.20;99.90
73360;DHT22;63092;43.582;19.528;2023-05-20T06:02:36;14.20;99.90
73360;DHT22;63092;43.582;19.528;2023-05-20T06:05:02;14.00;99.90
73360;DHT22;63092;43.582;19.528;2023-05-20T06:07:28;13.90;99.90
73360;DHT22;63092;43.582;19.528;2023-05-20T06:09:54;13.80;99.90
73360;DHT22;63092;43.582;19.528;2023-05-20T06:12:20;13.80;99.90
73360;DHT22;63092;43.582;19.528;2023-05-20T06:14:46;13.80;99.90
73360;DHT22;63092;43.582;19.528;2023-05-20T06:17:12;14.00;99.90
73360;DHT22;63092;43.582;19.528;2023-05-20T06:19:37;14.20;99.90
73360;DHT22;63092;43.582;19.528;2023-05-20T06:22:03;14.30;99.90
73360;DHT22;63092;43.582;19.528;2023-05-20T06:24:29;14.40;99.90
73360;DHT22;63092;43.582;19.528;2023-05-20T06:26:55;14.30;99.90
73360;DHT22;63092;43.582;19.528;2023-05-20T06:29:21;14.40;99.90
73360;DHT22;63092;43.582;19.528;2023-05-20T06:31:47;14.60;99.90
73360;DHT22;63092;43.582;19.528;2023-05-20T06:34:13;14.80;99.90
73360;DHT22;63092;43.582;19.528;2023-05-20T06:36:38;14.50;99.90
73360;DHT22;63092;43.582;19.528;2023-05-20T06:39:04;14.70;99.90
73360;DHT22;63092;43.582;19.528;2023-05-20T06:41:35;15.00;99.90
73360;DHT22;63092;43.582;19.528;2023-05-20T06:44:01;15.00;99.90
73360;DHT22;63092;43.582;19.528;2023-05-20T06:46:27;15.00;99.90
73360;DHT22;63092;43.582;19.528;2023-05-20T06:48:52;15.10;99.90
73360;DHT22;63092;43.582;19.528;2023-05-20T06:51:18;15.10;99.90
73360;DHT22;63092;43.582;19.528;2023-05-20T06:53:44;15.20;99.90
73360;DHT22;63092;43.582;19.528;2023-05-20T06:56:09;15.10;99.90
73360;DHT22;63092;43.582;19.528;2023-05-20T06:58:35;15.20;99.90
73360;DHT22;63092;43.582;19.528;2023-05-20T07:01:01;15.10;99.90
73360;DHT22;63092;43.582;19.528;2023-05-20T07:03:27;15.20;99.90
73360;DHT22;63092;43.582;19.528;2023-05-20T07:05:52;15.10;99.90
73360;DHT22;63092;43.582;19.528;2023-05-20T07:08:18;15.20;99.90
73360;DHT22;63092;43.582;19.528;2023-05-20T07:10:44;15.40;99.90
73360;DHT22;63092;43.582;19.528;2023-05-20T07:13:11;15.60;99.90
73360;DHT22;63092;43.582;19.528;2023-05-20T07:18:02;15.80;99.90
73360;DHT22;63092;43.582;19.528;2023-05-20T07:20:28;15.70;99.90
73360;DHT22;63092;43.582;19.528;2023-05-20T07:22:54;15.90;99.90
73360;DHT22;63092;43.582;19.528;2023-05-20T07:25:20;15.90;99.90
73360;DHT22;63092;43.582;19.528;2023-05-20T07:27:46;16.00;99.90
73360;DHT22;63092;43.582;19.528;2023-05-20T07:30:12;16.10;99.90
73360;DHT22;63092;43.582;19.528;2023-05-20T07:32:38;16.20;99.90
73360;DHT22;63092;43.582;19.528;2023-05-20T07:35:04;16.40;99.90
73360;DHT22;63092;43.582;19.528;2023-05-20T07:37:30;16.50;99.90
73360;DHT22;63092;43.582;19.528;2023-05-20T07:39:55;16.60;99.90
73360;DHT22;63092;43.582;19.528;2023-05-20T07:42:21;16.70;99.90
73360;DHT22;63092;43.582;19.528;2023-05-20T07:44:47;16.70;99.90
73360;DHT22;63092;43.582;19.528;2023-05-20T07:47:13;16.80;99.90
73360;DHT22;63092;43.582;19.528;2023-05-20T07:49:38;16.90;99.90
73360;DHT22;63092;43.582;19.528;2023-05-20T07:52:04;16.90;99.90
73360;DHT22;63092;43.582;19.528;2023-05-20T07:54:30;17.00;99.90
73360;DHT22;63092;43.582;19.528;2023-05-20T07:56:56;17.10;99.90
73360;DHT22;63092;43.582;19.528;2023-05-20T07:59:23;17.20;99.90
73360;DHT22;63092;43.582;19.528;2023-05-20T08:01:48;17.30;99.90
73360;DHT22;63092;43.582;19.528;2023-05-20T08:04:14;17.40;99.90
73360;DHT22;63092;43.582;19.528;2023-05-20T08:06:40;17.60;99.90
73360;DHT22;63092;43.582;19.528;2023-05-20T08:09:07;17.80;99.90
73360;DHT22;63092;43.582;19.528;2023-05-20T08:11:33;18.10;99.90
73360;DHT22;63092;43.582;19.528;2023-05-20T08:16:25;18.20;99.90
73360;DHT22;63092;43.582;19.528;2023-05-20T08:18:50;18.40;99.90
73360;DHT22;63092;43.582;19.528;2023-05-20T08:21:16;18.50;99.90
73360;DHT22;63092;43.582;19.528;2023-05-20T08:23:42;18.60;99.90
73360;DHT22;63092;43.582;19.528;2023-05-20T08:26:07;18.70;99.90
73360;DHT22;63092;43.582;19.528;2023-05-20T08:28:34;18.80;99.90
73360;DHT22;63092;43.582;19.528;2023-05-20T08:31:02;19.00;99.90
73360;DHT22;63092;43.582;19.528;2023-05-20T08:33:28;19.00;99.90
73360;DHT22;63092;43.582;19.528;2023-05-20T08:35:54;19.20;99.90
73360;DHT22;63092;43.582;19.528;2023-05-20T08:38:19;19.30;99.90
73360;DHT22;63092;43.582;19.528;2023-05-20T08:40:50;19.50;99.90
73360;DHT22;63092;43.582;19.528;2023-05-20T08:43:16;19.70;99.70
73360;DHT22;63092;43.582;19.528;2023-05-20T08:45:41;19.70;99.60
73360;DHT22;63092;43.582;19.528;2023-05-20T08:48:07;19.80;99.00
73360;DHT22;63092;43.582;19.528;2023-05-20T08:50:33;19.90;98.70
73360;DHT22;63092;43.582;19.528;2023-05-20T08:52:59;20.00;98.30
73360;DHT22;63092;43.582;19.528;2023-05-20T08:57:53;20.20;97.10
73360;DHT22;63092;43.582;19.528;2023-05-20T09:00:20;20.40;97.00
73360;DHT22;63092;43.582;19.528;2023-05-20T09:02:48;20.50;97.00
73360;DHT22;63092;43.582;19.528;2023-05-20T09:05:13;20.60;96.80
73360;DHT22;63092;43.582;19.528;2023-05-20T09:07:39;20.70;95.40
73360;DHT22;63092;43.582;19.528;2023-05-20T09:10:08;20.90;95.60
73360;DHT22;63092;43.582;19.528;2023-05-20T09:12:34;21.10;95.50
73360;DHT22;63092;43.582;19.528;2023-05-20T09:15:01;21.30;94.60
73360;DHT22;63092;43.582;19.528;2023-05-20T09:17:27;21.40;94.40
73360;DHT22;63092;43.582;19.528;2023-05-20T09:22:27;21.70;93.90
73360;DHT22;63092;43.582;19.528;2023-05-20T09:24:53;21.90;93.50
73360;DHT22;63092;43.582;19.528;2023-05-20T09:27:20;22.00;93.50
73360;DHT22;63092;43.582;19.528;2023-05-20T09:29:50;22.00;92.90
73360;DHT22;63092;43.582;19.528;2023-05-20T09:32:16;22.00;92.60
73360;DHT22;63092;43.582;19.528;2023-05-20T09:34:46;22.10;92.50
73360;DHT22;63092;43.582;19.528;2023-05-20T09:37:13;22.20;92.80
73360;DHT22;63092;43.582;19.528;2023-05-20T09:40:02;22.20;92.20
73360;DHT22;63092;43.582;19.528;2023-05-20T09:42:39;22.40;91.80
73360;DHT22;63092;43.582;19.528;2023-05-20T09:45:07;22.50;90.70
73360;DHT22;63092;43.582;19.528;2023-05-20T09:47:37;22.50;91.10
73360;DHT22;63092;43.582;19.528;2023-05-20T09:50:05;22.70;90.30
73360;DHT22;63092;43.582;19.528;2023-05-20T09:52:36;22.70;90.20
73360;DHT22;63092;43.582;19.528;2023-05-20T09:55:04;22.80;88.70
73360;DHT22;63092;43.582;19.528;2023-05-20T10:00:02;23.10;93.50
73360;DHT22;63092;43.582;19.528;2023-05-20T10:02:29;23.30;93.90
73360;DHT22;63092;43.582;19.528;2023-05-20T10:20:21;23.80;81.90
73360;DHT22;63092;43.582;19.528;2023-05-20T10:22:55;23.80;80.60
73360;DHT22;63092;43.582;19.528;2023-05-20T10:25:26;23.70;80.40
73360;DHT22;63092;43.582;19.528;2023-05-20T10:28:05;23.80;80.40
73360;DHT22;63092;43.582;19.528;2023-05-20T10:30:32;23.90;80.10
73360;DHT22;63092;43.582;19.528;2023-05-20T10:33:03;24.10;79.40
73360;DHT22;63092;43.582;19.528;2023-05-20T10:35:30;24.00;78.70
73360;DHT22;63092;43.582;19.528;2023-05-20T10:38:09;24.00;79.20
73360;DHT22;63092;43.582;19.528;2023-05-20T10:40:36;23.80;80.10
73360;DHT22;63092;43.582;19.528;2023-05-20T10:43:11;23.80;81.80
73360;DHT22;63092;43.582;19.528;2023-05-20T10:45:49;23.80;79.80
73360;DHT22;63092;43.582;19.528;2023-05-20T10:48:29;23.60;80.40
73360;DHT22;63092;43.582;19.528;2023-05-20T10:51:00;23.50;79.20
73360;DHT22;63092;43.582;19.528;2023-05-20T10:53:36;23.60;79.70
73360;DHT22;63092;43.582;19.528;2023-05-20T10:56:02;23.60;81.80
73360;DHT22;63092;43.582;19.528;2023-05-20T10:58:36;23.80;82.10
73360;DHT22;63092;43.582;19.528;2023-05-20T11:01:02;23.80;81.50
73360;DHT22;63092;43.582;19.528;2023-05-20T11:03:28;23.80;81.80
73360;DHT22;63092;43.582;19.528;2023-05-20T11:05:54;23.80;82.30
73360;DHT22;63092;43.582;19.528;2023-05-20T11:08:20;23.70;81.60
73360;DHT22;63092;43.582;19.528;2023-05-20T11:10:46;23.90;83.40
73360;DHT22;63092;43.582;19.528;2023-05-20T11:13:12;24.00;80.20
73360;DHT22;63092;43.582;19.528;2023-05-20T11:15:39;24.00;80.60
73360;DHT22;63092;43.582;19.528;2023-05-20T11:18:05;23.90;80.30
73360;DHT22;63092;43.582;19.528;2023-05-20T11:20:31;23.90;81.60
73360;DHT22;63092;43.582;19.528;2023-05-20T11:23:00;23.80;80.60
73360;DHT22;63092;43.582;19.528;2023-05-20T11:25:26;24.00;81.70
73360;DHT22;63092;43.582;19.528;2023-05-20T11:27:53;23.90;79.70
73360;DHT22;63092;43.582;19.528;2023-05-20T11:30:19;23.90;78.90
73360;DHT22;63092;43.582;19.528;2023-05-20T11:33:01;23.90;78.00
73360;DHT22;63092;43.582;19.528;2023-05-20T11:35:30;23.80;78.70
73360;DHT22;63092;43.582;19.528;2023-05-20T11:38:00;23.80;80.10
73360;DHT22;63092;43.582;19.528;2023-05-20T11:40:26;23.80;79.30
73360;DHT22;63092;43.582;19.528;2023-05-20T11:42:56;23.90;78.10
73360;DHT22;63092;43.582;19.528;2023-05-20T11:45:23;24.00;79.20
73360;DHT22;63092;43.582;19.528;2023-05-20T11:48:02;24.00;79.80
73360;DHT22;63092;43.582;19.528;2023-05-20T11:50:33;24.10;77.90
73360;DHT22;63092;43.582;19.528;2023-05-20T11:53:02;24.10;77.40
73360;DHT22;63092;43.582;19.528;2023-05-20T11:55:28;24.10;75.50
73360;DHT22;63092;43.582;19.528;2023-05-20T11:57:57;24.00;74.50
73360;DHT22;63092;43.582;19.528;2023-05-20T12:00:23;23.90;76.30
73360;DHT22;63092;43.582;19.528;2023-05-20T12:02:50;23.90;76.60
73360;DHT22;63092;43.582;19.528;2023-05-20T12:05:16;23.80;77.20
73360;DHT22;63092;43.582;19.528;2023-05-20T12:07:42;23.70;78.30
73360;DHT22;63092;43.582;19.528;2023-05-20T12:10:09;23.60;76.90
73360;DHT22;63092;43.582;19.528;2023-05-20T12:12:35;23.50;75.10
73360;DHT22;63092;43.582;19.528;2023-05-20T12:15:05;23.50;76.00
73360;DHT22;63092;43.582;19.528;2023-05-20T12:17:50;23.50;76.70
73360;DHT22;63092;43.582;19.528;2023-05-20T12:20:19;23.50;75.90
73360;DHT22;63092;43.582;19.528;2023-05-20T12:22:45;23.60;75.20
73360;DHT22;63092;43.582;19.528;2023-05-20T12:25:12;23.70;75.30
73360;DHT22;63092;43.582;19.528;2023-05-20T12:27:39;23.60;74.40
73360;DHT22;63092;43.582;19.528;2023-05-20T12:30:07;23.60;74.80
73360;DHT22;63092;43.582;19.528;2023-05-20T12:32:37;23.60;74.40
73360;DHT22;63092;43.582;19.528;2023-05-20T12:35:03;23.50;76.10
73360;DHT22;63092;43.582;19.528;2023-05-20T12:37:29;23.50;73.70
73360;DHT22;63092;43.582;19.528;2023-05-20T12:39:55;23.60;73.90
73360;DHT22;63092;43.582;19.528;2023-05-20T12:42:21;23.50;76.10
73360;DHT22;63092;43.582;19.528;2023-05-20T12:44:47;23.50;74.00
73360;DHT22;63092;43.582;19.528;2023-05-20T12:47:12;23.50;76.00
73360;DHT22;63092;43.582;19.528;2023-05-20T12:49:38;23.50;74.70
73360;DHT22;63092;43.582;19.528;2023-05-20T12:52:04;23.50;73.60
73360;DHT22;63092;43.582;19.528;2023-05-20T12:54:30;23.40;73.90
73360;DHT22;63092;43.582;19.528;2023-05-20T12:56:56;23.50;74.50
73360;DHT22;63092;43.582;19.528;2023-05-20T12:59:22;23.60;74.70
73360;DHT22;63092;43.582;19.528;2023-05-20T13:01:48;23.60;75.30
73360;DHT22;63092;43.582;19.528;2023-05-20T13:04:13;23.70;76.10
73360;DHT22;63092;43.582;19.528;2023-05-20T13:06:39;23.90;75.30
73360;DHT22;63092;43.582;19.528;2023-05-20T13:09:06;23.90;74.80
73360;DHT22;63092;43.582;19.528;2023-05-20T13:11:32;23.90;76.50
73360;DHT22;63092;43.582;19.528;2023-05-20T13:13:58;23.90;74.50
73360;DHT22;63092;43.582;19.528;2023-05-20T13:16:24;23.90;74.60
73360;DHT22;63092;43.582;19.528;2023-05-20T13:18:50;23.80;75.00
73360;DHT22;63092;43.582;19.528;2023-05-20T13:21:16;23.80;77.10
73360;DHT22;63092;43.582;19.528;2023-05-20T13:23:42;23.70;75.90
73360;DHT22;63092;43.582;19.528;2023-05-20T13:26:08;23.60;74.70
73360;DHT22;63092;43.582;19.528;2023-05-20T13:28:34;23.70;73.70
73360;DHT22;63092;43.582;19.528;2023-05-20T13:31:04;23.70;73.50
73360;DHT22;63092;43.582;19.528;2023-05-20T13:33:31;23.70;73.40
73360;DHT22;63092;43.582;19.528;2023-05-20T13:35:57;23.70;73.90
73360;DHT22;63092;43.582;19.528;2023-05-20T13:38:23;23.80;71.50
73360;DHT22;63092;43.582;19.528;2023-05-20T13:40:48;24.00;72.40
73360;DHT22;63092;43.582;19.528;2023-05-20T13:43:15;24.10;73.50
73360;DHT22;63092;43.582;19.528;2023-05-20T13:45:41;24.30;70.00
73360;DHT22;63092;43.582;19.528;2023-05-20T13:48:07;24.30;72.50
73360;DHT22;63092;43.582;19.528;2023-05-20T13:50:33;24.40;70.70
73360;DHT22;63092;43.582;19.528;2023-05-20T13:52:58;24.60;73.00
73360;DHT22;63092;43.582;19.528;2023-05-20T13:57:50;24.70;70.80
73360;DHT22;63092;43.582;19.528;2023-05-20T14:00:19;24.90;71.70
73360;DHT22;63092;43.582;19.528;2023-05-20T14:02:45;24.80;69.80
73360;DHT22;63092;43.582;19.528;2023-05-20T14:05:11;24.80;70.30
73360;DHT22;63092;43.582;19.528;2023-05-20T14:07:37;24.80;69.50
73360;DHT22;63092;43.582;19.528;2023-05-20T14:10:04;24.80;68.20
73360;DHT22;63092;43.582;19.528;2023-05-20T14:12:30;24.80;69.60
73360;DHT22;63092;43.582;19.528;2023-05-20T14:14:56;24.90;68.30
73360;DHT22;63092;43.582;19.528;2023-05-20T14:17:22;24.80;68.60
73360;DHT22;63092;43.582;19.528;2023-05-20T14:19:47;24.70;68.50
73360;DHT22;63092;43.582;19.528;2023-05-20T14:22:13;24.60;67.80
73360;DHT22;63092;43.582;19.528;2023-05-20T14:24:40;24.60;68.70
73360;DHT22;63092;43.582;19.528;2023-05-20T14:29:31;24.40;68.70
73360;DHT22;63092;43.582;19.528;2023-05-20T14:31:57;24.40;69.00
73360;DHT22;63092;43.582;19.528;2023-05-20T14:34:23;24.40;69.00
73360;DHT22;63092;43.582;19.528;2023-05-20T14:36:49;24.40;68.20
73360;DHT22;63092;43.582;19.528;2023-05-20T14:39:14;24.50;68.30
73360;DHT22;63092;43.582;19.528;2023-05-20T14:41:41;24.50;68.10
73360;DHT22;63092;43.582;19.528;2023-05-20T14:44:07;24.50;68.20
73360;DHT22;63092;43.582;19.528;2023-05-20T14:46:32;24.40;68.10
73360;DHT22;63092;43.582;19.528;2023-05-20T14:48:59;24.30;69.20
73360;DHT22;63092;43.582;19.528;2023-05-20T14:51:24;24.30;68.50
73360;DHT22;63092;43.582;19.528;2023-05-20T14:53:50;24.20;69.60
73360;DHT22;63092;43.582;19.528;2023-05-20T14:56:16;24.10;70.50
73360;DHT22;63092;43.582;19.528;2023-05-20T14:58:42;24.10;70.00
73360;DHT22;63092;43.582;19.528;2023-05-20T15:01:07;24.10;70.40
73360;DHT22;63092;43.582;19.528;2023-05-20T15:03:33;24.00;70.00
73360;DHT22;63092;43.582;19.528;2023-05-20T15:05:59;24.10;69.70
73360;DHT22;63092;43.582;19.528;2023-05-20T15:08:25;24.10;69.80
73360;DHT22;63092;43.582;19.528;2023-05-20T15:10:50;24.10;69.20
73360;DHT22;63092;43.582;19.528;2023-05-20T15:13:16;24.30;69.40
73360;DHT22;63092;43.582;19.528;2023-05-20T15:15:42;24.20;69.40
73360;DHT22;63092;43.582;19.528;2023-05-20T15:18:08;24.20;70.30
73360;DHT22;63092;43.582;19.528;2023-05-20T15:20:33;24.20;69.10
73360;DHT22;63092;43.582;19.528;2023-05-20T15:22:59;24.10;69.30
73360;DHT22;63092;43.582;19.528;2023-05-20T15:25:25;24.10;71.40
73360;DHT22;63092;43.582;19.528;2023-05-20T15:27:50;24.10;71.50
73360;DHT22;63092;43.582;19.528;2023-05-20T15:30:16;24.00;71.00
73360;DHT22;63092;43.582;19.528;2023-05-20T15:32:42;23.90;71.20
73360;DHT22;63092;43.582;19.528;2023-05-20T15:35:08;23.80;71.80
73360;DHT22;63092;43.582;19.528;2023-05-20T15:37:34;23.80;72.10
73360;DHT22;63092;43.582;19.528;2023-05-20T15:39:59;23.80;71.70
73360;DHT22;63092;43.582;19.528;2023-05-20T15:42:25;23.70;72.70
73360;DHT22;63092;43.582;19.528;2023-05-20T15:44:51;23.70;72.30
73360;DHT22;63092;43.582;19.528;2023-05-20T15:49:49;23.40;73.90